sensor_id;sensor_type;location;lat;lon;timestamp;pressure;altitude;pressure_sealevel;temperature;humidity
59104;BME280;51449;51.676;5.812;2024-01-30T00:00:39;102583.75;;;8.49;75.33
59104;BME280;51449;51.676;5.812;2024-01-30T00:03:01;102577.97;;;8.46;75.05
59104;BME280;51449;51.676;5.812;2024-01-30T00:05:22;102584.84;;;8.43;74.99
59104;BME280;51449;51.676;5.812;2024-01-30T00:07:44;102586.22;;;8.41;75.00
59104;BME280;51449;51.676;5.812;2024-01-30T00:10:06;102575.75;;;8.38;75.05
59104;BME280;51449;51.676;5.812;2024-01-30T00:12:28;102581.00;;;8.34;74.97
59104;BME280;51449;51.676;5.812;2024-01-30T00:14:50;102582.34;;;8.31;75.28
59104;BME280;51449;51.676;5.812;2024-01-30T00:17:15;102579.34;;;8.28;75.33
59104;BME280;51449;51.676;5.812;2024-01-30T00:19:37;102586.19;;;8.25;75.09
59104;BME280;51449;51.676;5.812;2024-01-30T00:21:59;102582.63;;;8.20;75.25
59104;BME280;51449;51.676;5.812;2024-01-30T00:24:21;102582.91;;;8.18;75.27
59104;BME280;51449;51.676;5.812;2024-01-30T00:26:43;102571.66;;;8.14;75.09
59104;BME280;51449;51.676;5.812;2024-01-30T00:29:04;102579.91;;;8.14;75.50
59104;BME280;51449;51.676;5.812;2024-01-30T00:31:26;102577.69;;;8.11;75.32
59104;BME280;51449;51.676;5.812;2024-01-30T00:33:48;102577.97;;;8.10;75.04
59104;BME280;51449;51.676;5.812;2024-01-30T00:36:11;102575.75;;;8.07;75.30
59104;BME280;51449;51.676;5.812;2024-01-30T00:38:33;102576.03;;;8.05;75.31
59104;BME280;51449;51.676;5.812;2024-01-30T00:40:54;102580.16;;;8.03;75.58
59104;BME280;51449;51.676;5.812;2024-01-30T00:43:16;102574.38;;;7.99;75.22
59104;BME280;51449;51.676;5.812;2024-01-30T00:45:38;102568.63;;;7.96;75.34
59104;BME280;51449;51.676;5.812;2024-01-30T00:48:00;102565.31;;;7.93;75.61
59104;BME280;51449;51.676;5.812;2024-01-30T00:50:22;102567.78;;;7.90;75.56
59104;BME280;51449;51.676;5.812;2024-01-30T00:52:44;102570.00;;;7.88;75.60
59104;BME280;51449;51.676;5.812;2024-01-30T00:55:07;102567.25;;;7.88;75.89
59104;BME280;51449;51.676;5.812;2024-01-30T00:57:29;102568.88;;;7.89;75.43
59104;BME280;51449;51.676;5.812;2024-01-30T00:59:50;102568.88;;;7.89;75.25
59104;BME280;51449;51.676;5.812;2024-01-30T01:02:12;102570.50;;;7.90;75.46
59104;BME280;51449;51.676;5.812;2024-01-30T01:04:35;102575.19;;;7.89;75.39
59104;BME280;51449;51.676;5.812;2024-01-30T01:06:57;102570.00;;;7.88;75.58
59104;BME280;51449;51.676;5.812;2024-01-30T01:09:19;102566.13;;;7.89;75.63
59104;BME280;51449;51.676;5.812;2024-01-30T01:11:41;102565.56;;;7.87;75.52
59104;BME280;51449;51.676;5.812;2024-01-30T01:14:02;102560.09;;;7.87;75.63
59104;BME280;51449;51.676;5.812;2024-01-30T01:16:24;102566.13;;;7.89;75.73
59104;BME280;51449;51.676;5.812;2024-01-30T01:18:46;102556.28;;;7.88;75.49
59104;BME280;51449;51.676;5.812;2024-01-30T01:21:08;102552.97;;;7.86;75.68
59104;BME280;51449;51.676;5.812;2024-01-30T01:23:30;102554.91;;;7.85;75.84
59104;BME280;51449;51.676;5.812;2024-01-30T01:25:52;102547.75;;;7.84;75.76
59104;BME280;51449;51.676;5.812;2024-01-30T01:28:13;102547.75;;;7.84;75.54
59104;BME280;51449;51.676;5.812;2024-01-30T01:30:36;102549.66;;;7.84;76.34
59104;BME280;51449;51.676;5.812;2024-01-30T01:32:58;102548.56;;;7.85;75.78
59104;BME280;51449;51.676;5.812;2024-01-30T01:35:23;102544.72;;;7.86;75.75
59104;BME280;51449;51.676;5.812;2024-01-30T01:37:49;102542.81;;;7.86;75.86
59104;BME280;51449;51.676;5.812;2024-01-30T01:40:16;102541.16;;;7.85;75.81
59104;BME280;51449;51.676;5.812;2024-01-30T01:42:38;102541.16;;;7.85;76.03
59104;BME280;51449;51.676;5.812;2024-01-30T01:44:59;102529.34;;;7.85;76.24
59104;BME280;51449;51.676;5.812;2024-01-30T01:47:21;102533.47;;;7.82;76.19
59104;BME280;51449;51.676;5.812;2024-01-30T01:49:43;102541.69;;;7.82;76.18
59104;BME280;51449;51.676;5.812;2024-01-30T01:52:06;102539.25;;;7.81;76.20
59104;BME280;51449;51.676;5.812;2024-01-30T01:54:29;102533.75;;;7.81;76.06
59104;BME280;51449;51.676;5.812;2024-01-30T01:56:54;102534.56;;;7.81;76.26
59104;BME280;51449;51.676;5.812;2024-01-30T01:59:16;102528.25;;;7.81;76.26
59104;BME280;51449;51.676;5.812;2024-01-30T02:01:39;102531.00;;;7.81;76.42
59104;BME280;51449;51.676;5.812;2024-01-30T02:04:04;102524.41;;;7.82;76.45
59104;BME280;51449;51.676;5.812;2024-01-30T02:06:26;102526.59;;;7.80;76.66
59104;BME280;51449;51.676;5.812;2024-01-30T02:08:49;102525.78;;;7.79;76.47
59104;BME280;51449;51.676;5.812;2024-01-30T02:11:11;102527.72;;;7.79;76.53
59104;BME280;51449;51.676;5.812;2024-01-30T02:13:32;102531.53;;;7.78;76.68
59104;BME280;51449;51.676;5.812;2024-01-30T02:15:54;102523.03;;;7.79;76.42
59104;BME280;51449;51.676;5.812;2024-01-30T02:18:16;102534.00;;;7.79;76.47
59104;BME280;51449;51.676;5.812;2024-01-30T02:20:39;102525.78;;;7.79;76.64
59104;BME280;51449;51.676;5.812;2024-01-30T02:23:01;102522.78;;;7.81;76.84
59104;BME280;51449;51.676;5.812;2024-01-30T02:25:36;102517.28;;;7.81;76.60
59104;BME280;51449;51.676;5.812;2024-01-30T02:28:00;102531.56;;;7.83;76.72
59104;BME280;51449;51.676;5.812;2024-01-30T02:30:22;102524.41;;;7.82;76.84
59104;BME280;51449;51.676;5.812;2024-01-30T02:32:44;102523.34;;;7.83;76.66
59104;BME280;51449;51.676;5.812;2024-01-30T02:35:06;102515.09;;;7.83;76.95
59104;BME280;51449;51.676;5.812;2024-01-30T02:37:28;102513.72;;;7.85;76.42
59104;BME280;51449;51.676;5.812;2024-01-30T02:39:50;102514.53;;;7.86;76.62
59104;BME280;51449;51.676;5.812;2024-01-30T02:42:11;102511.81;;;7.86;76.73
59104;BME280;51449;51.676;5.812;2024-01-30T02:44:33;102509.63;;;7.88;76.63
59104;BME280;51449;51.676;5.812;2024-01-30T02:46:55;102506.88;;;7.88;76.61
59104;BME280;51449;51.676;5.812;2024-01-30T02:49:17;102506.88;;;7.88;76.62
59104;BME280;51449;51.676;5.812;2024-01-30T02:51:39;102509.31;;;7.89;76.58
59104;BME280;51449;51.676;5.812;2024-01-30T02:54:01;102511.81;;;7.91;76.50
59104;BME280;51449;51.676;5.812;2024-01-30T02:56:22;102511.53;;;7.92;76.69
59104;BME280;51449;51.676;5.812;2024-01-30T02:58:44;102504.69;;;7.95;76.67
59104;BME280;51449;51.676;5.812;2024-01-30T03:01:06;102500.81;;;7.96;76.49
59104;BME280;51449;51.676;5.812;2024-01-30T03:03:28;102506.88;;;7.98;76.53
59104;BME280;51449;51.676;5.812;2024-01-30T03:05:50;102496.16;;;8.02;76.88
59104;BME280;51449;51.676;5.812;2024-01-30T03:08:12;102497.81;;;8.03;76.72
59104;BME280;51449;51.676;5.812;2024-01-30T03:10:34;102490.66;;;8.02;76.67
59104;BME280;51449;51.676;5.812;2024-01-30T03:12:57;102492.31;;;8.03;76.51
59104;BME280;51449;51.676;5.812;2024-01-30T03:15:18;102493.94;;;8.04;77.05
59104;BME280;51449;51.676;5.812;2024-01-30T03:17:40;102495.63;;;8.05;76.95
59104;BME280;51449;51.676;5.812;2024-01-30T03:20:03;102495.31;;;8.06;76.90
59104;BME280;51449;51.676;5.812;2024-01-30T03:22:27;102486.81;;;8.08;76.68
59104;BME280;51449;51.676;5.812;2024-01-30T03:24:49;102480.22;;;8.09;76.79
59104;BME280;51449;51.676;5.812;2024-01-30T03:27:11;102488.47;;;8.09;77.07
59104;BME280;51449;51.676;5.812;2024-01-30T03:29:33;102488.19;;;8.10;76.59
59104;BME280;51449;51.676;5.812;2024-01-30T03:31:54;102474.72;;;8.09;76.87
59104;BME280;51449;51.676;5.812;2024-01-30T03:34:17;102469.25;;;8.09;76.54
59104;BME280;51449;51.676;5.812;2024-01-30T03:36:39;102471.72;;;8.10;76.80
59104;BME280;51449;51.676;5.812;2024-01-30T03:39:01;102471.72;;;8.10;76.71
59104;BME280;51449;51.676;5.812;2024-01-30T03:41:23;102475.03;;;8.12;76.68
59104;BME280;51449;51.676;5.812;2024-01-30T03:43:45;102466.22;;;8.15;76.64
59104;BME280;51449;51.676;5.812;2024-01-30T03:46:08;102458.25;;;8.14;76.82
59104;BME280;51449;51.676;5.812;2024-01-30T03:48:30;102461.84;;;8.14;77.22
59104;BME280;51449;51.676;5.812;2024-01-30T03:50:52;102455.50;;;8.14;77.38
59104;BME280;51449;51.676;5.812;2024-01-30T03:53:14;102451.94;;;8.13;77.32
59104;BME280;51449;51.676;5.812;2024-01-30T03:55:35;102462.09;;;8.13;77.00
59104;BME280;51449;51.676;5.812;2024-01-30T03:57:57;102454.13;;;8.11;77.32
59104;BME280;51449;51.676;5.812;2024-01-30T04:00:19;102458.53;;;8.12;76.95
59104;BME280;51449;51.676;5.812;2024-01-30T04:02:41;102448.38;;;8.13;76.91
59104;BME280;51449;51.676;5.812;2024-01-30T04:05:03;102449.75;;;8.10;77.02
59104;BME280;51449;51.676;5.812;2024-01-30T04:07:25;102459.06;;;8.09;77.02
59104;BME280;51449;51.676;5.812;2024-01-30T04:09:47;102464.56;;;8.09;76.94
59104;BME280;51449;51.676;5.812;2024-01-30T04:12:09;102467.59;;;8.08;76.94
59104;BME280;51449;51.676;5.812;2024-01-30T04:14:30;102469.81;;;8.06;76.85
59104;BME280;51449;51.676;5.812;2024-01-30T04:16:52;102471.19;;;8.03;76.74
59104;BME280;51449;51.676;5.812;2024-01-30T04:19:14;102473.09;;;8.03;76.78
59104;BME280;51449;51.676;5.812;2024-01-30T04:21:36;102472.28;;;8.02;76.74
59104;BME280;51449;51.676;5.812;2024-01-30T04:23:58;102470.38;;;8.03;77.14
59104;BME280;51449;51.676;5.812;2024-01-30T04:26:20;102470.38;;;8.03;77.07
59104;BME280;51449;51.676;5.812;2024-01-30T04:28:42;102468.97;;;8.05;76.78
59104;BME280;51449;51.676;5.812;2024-01-30T04:31:05;102463.75;;;8.09;76.85
59104;BME280;51449;51.676;5.812;2024-01-30T04:33:27;102455.25;;;8.10;77.12
59104;BME280;51449;51.676;5.812;2024-01-30T04:35:49;102456.34;;;8.14;76.83
59104;BME280;51449;51.676;5.812;2024-01-30T04:38:11;102451.13;;;8.18;77.21
59104;BME280;51449;51.676;5.812;2024-01-30T04:40:33;102454.41;;;8.20;76.71
59104;BME280;51449;51.676;5.812;2024-01-30T04:42:55;102453.84;;;8.23;76.76
59104;BME280;51449;51.676;5.812;2024-01-30T04:45:16;102451.66;;;8.25;77.02
59104;BME280;51449;51.676;5.812;2024-01-30T04:47:38;102453.56;;;8.25;76.79
59104;BME280;51449;51.676;5.812;2024-01-30T04:50:01;102451.66;;;8.25;76.92
59104;BME280;51449;51.676;5.812;2024-01-30T04:52:24;102446.16;;;8.25;77.52
59104;BME280;51449;51.676;5.812;2024-01-30T04:54:46;102445.88;;;8.27;77.21
59104;BME280;51449;51.676;5.812;2024-01-30T04:57:07;102443.41;;;8.30;77.36
59104;BME280;51449;51.676;5.812;2024-01-30T04:59:31;102434.91;;;8.32;77.61
59104;BME280;51449;51.676;5.812;2024-01-30T05:01:52;102435.16;;;8.35;77.77
59104;BME280;51449;51.676;5.812;2024-01-30T05:04:14;102437.63;;;8.42;77.75
59104;BME280;51449;51.676;5.812;2024-01-30T05:06:38;102433.50;;;8.45;77.66
59104;BME280;51449;51.676;5.812;2024-01-30T05:09:00;102437.03;;;8.50;77.88
59104;BME280;51449;51.676;5.812;2024-01-30T05:11:21;102434.03;;;8.52;78.05
59104;BME280;51449;51.676;5.812;2024-01-30T05:13:43;102427.16;;;8.54;78.12
59104;BME280;51449;51.676;5.812;2024-01-30T05:16:05;102426.31;;;8.59;78.23
59104;BME280;51449;51.676;5.812;2024-01-30T05:18:27;102420.25;;;8.62;78.37
59104;BME280;51449;51.676;5.812;2024-01-30T05:20:52;102427.66;;;8.67;79.23
59104;BME280;51449;51.676;5.812;2024-01-30T05:23:13;102421.03;;;8.68;79.55
59104;BME280;51449;51.676;5.812;2024-01-30T05:25:35;102420.19;;;8.72;80.58
59104;BME280;51449;51.676;5.812;2024-01-30T05:27:57;102417.16;;;8.79;80.56
59104;BME280;51449;51.676;5.812;2024-01-30T05:30:19;102428.94;;;8.85;80.53
59104;BME280;51449;51.676;5.812;2024-01-30T05:32:41;102430.84;;;8.89;80.70
59104;BME280;51449;51.676;5.812;2024-01-30T05:35:03;102437.16;;;8.95;80.71
59104;BME280;51449;51.676;5.812;2024-01-30T05:37:25;102443.72;;;8.99;80.90
59104;BME280;51449;51.676;5.812;2024-01-30T05:39:47;102442.84;;;9.04;80.88
59104;BME280;51449;51.676;5.812;2024-01-30T05:42:09;102437.31;;;9.09;81.14
59104;BME280;51449;51.676;5.812;2024-01-30T05:44:31;102438.41;;;9.13;81.27
59104;BME280;51449;51.676;5.812;2024-01-30T05:46:53;102438.94;;;9.20;81.04
59104;BME280;51449;51.676;5.812;2024-01-30T05:49:15;102435.03;;;9.26;80.64
59104;BME280;51449;51.676;5.812;2024-01-30T05:51:37;102433.94;;;9.27;80.58
59104;BME280;51449;51.676;5.812;2024-01-30T05:53:58;102440.47;;;9.31;80.24
59104;BME280;51449;51.676;5.812;2024-01-30T05:56:20;102443.50;;;9.35;79.97
59104;BME280;51449;51.676;5.812;2024-01-30T05:58:42;102439.34;;;9.37;79.95
59104;BME280;51449;51.676;5.812;2024-01-30T06:01:07;102441.84;;;9.39;79.44
59104;BME280;51449;51.676;5.812;2024-01-30T06:03:30;102440.97;;;9.38;79.63
59104;BME280;51449;51.676;5.812;2024-01-30T06:05:52;102445.09;;;9.41;79.53
59104;BME280;51449;51.676;5.812;2024-01-30T06:08:13;102444.00;;;9.42;79.39
59104;BME280;51449;51.676;5.812;2024-01-30T06:10:35;102440.94;;;9.43;79.39
59104;BME280;51449;51.676;5.812;2024-01-30T06:12:57;102437.69;;;9.41;79.65
59104;BME280;51449;51.676;5.812;2024-01-30T06:15:19;102441.25;;;9.42;79.79
59104;BME280;51449;51.676;5.812;2024-01-30T06:17:41;102436.56;;;9.42;80.06
59104;BME280;51449;51.676;5.812;2024-01-30T06:20:03;102434.59;;;9.48;79.74
59104;BME280;51449;51.676;5.812;2024-01-30T06:22:25;102438.69;;;9.51;79.83
59104;BME280;51449;51.676;5.812;2024-01-30T06:24:47;102434.53;;;9.53;79.77
59104;BME280;51449;51.676;5.812;2024-01-30T06:27:14;102434.81;;;9.57;79.64
59104;BME280;51449;51.676;5.812;2024-01-30T06:29:36;102440.31;;;9.57;79.90
59104;BME280;51449;51.676;5.812;2024-01-30T06:31:59;102443.59;;;9.59;79.54
59104;BME280;51449;51.676;5.812;2024-01-30T06:34:21;102446.03;;;9.60;79.78
59104;BME280;51449;51.676;5.812;2024-01-30T06:36:43;102444.13;;;9.61;79.79
59104;BME280;51449;51.676;5.812;2024-01-30T06:39:05;102451.28;;;9.62;79.42
59104;BME280;51449;51.676;5.812;2024-01-30T06:41:27;102444.97;;;9.61;79.61
59104;BME280;51449;51.676;5.812;2024-01-30T06:43:49;102439.44;;;9.61;79.41
59104;BME280;51449;51.676;5.812;2024-01-30T06:46:11;102439.44;;;9.61;79.30
59104;BME280;51449;51.676;5.812;2024-01-30T06:48:34;102447.97;;;9.60;79.28
59104;BME280;51449;51.676;5.812;2024-01-30T06:50:57;102456.25;;;9.60;79.64
59104;BME280;51449;51.676;5.812;2024-01-30T06:53:19;102455.16;;;9.61;79.56
59104;BME280;51449;51.676;5.812;2024-01-30T06:55:41;102446.59;;;9.62;79.27
59104;BME280;51449;51.676;5.812;2024-01-30T06:58:03;102448.53;;;9.62;79.27
59104;BME280;51449;51.676;5.812;2024-01-30T07:00:25;102460.66;;;9.61;79.73
59104;BME280;51449;51.676;5.812;2024-01-30T07:02:46;102457.91;;;9.61;79.78
59104;BME280;51449;51.676;5.812;2024-01-30T07:05:09;102461.47;;;9.61;79.41
59104;BME280;51449;51.676;5.812;2024-01-30T07:07:31;102470.53;;;9.62;79.24
59104;BME280;51449;51.676;5.812;2024-01-30T07:09:53;102469.72;;;9.61;79.12
59104;BME280;51449;51.676;5.812;2024-01-30T07:12:18;102470.00;;;9.60;79.10
59104;BME280;51449;51.676;5.812;2024-01-30T07:14:40;102470.00;;;9.60;79.27
59104;BME280;51449;51.676;5.812;2024-01-30T07:17:02;102479.59;;;9.62;79.11
59104;BME280;51449;51.676;5.812;2024-01-30T07:19:24;102467.78;;;9.62;78.88
59104;BME280;51449;51.676;5.812;2024-01-30T07:21:46;102477.97;;;9.61;78.92
59104;BME280;51449;51.676;5.812;2024-01-30T07:24:07;102488.16;;;9.61;78.85
59104;BME280;51449;51.676;5.812;2024-01-30T07:26:29;102498.63;;;9.59;78.73
59104;BME280;51449;51.676;5.812;2024-01-30T07:28:51;102500.84;;;9.57;79.02
59104;BME280;51449;51.676;5.812;2024-01-30T07:31:13;102500.31;;;9.55;79.35
59104;BME280;51449;51.676;5.812;2024-01-30T07:33:35;102500.31;;;9.55;79.57
59104;BME280;51449;51.676;5.812;2024-01-30T07:35:57;102505.22;;;9.58;79.67
59104;BME280;51449;51.676;5.812;2024-01-30T07:38:19;102507.44;;;9.56;79.89
59104;BME280;51449;51.676;5.812;2024-01-30T07:40:41;102510.72;;;9.58;80.25
59104;BME280;51449;51.676;5.812;2024-01-30T07:43:03;102499.50;;;9.54;80.33
59104;BME280;51449;51.676;5.812;2024-01-30T07:45:25;102496.44;;;9.56;80.42
59104;BME280;51449;51.676;5.812;2024-01-30T07:47:49;102492.59;;;9.57;80.89
59104;BME280;51449;51.676;5.812;2024-01-30T07:50:11;102503.03;;;9.60;80.47
59104;BME280;51449;51.676;5.812;2024-01-30T07:52:34;102500.25;;;9.60;80.73
59104;BME280;51449;51.676;5.812;2024-01-30T07:54:56;102494.19;;;9.63;80.89
59104;BME280;51449;51.676;5.812;2024-01-30T07:57:18;102490.88;;;9.66;80.72
59104;BME280;51449;51.676;5.812;2024-01-30T07:59:42;102507.94;;;9.68;80.56
59104;BME280;51449;51.676;5.812;2024-01-30T08:02:05;102516.44;;;9.72;80.37
59104;BME280;51449;51.676;5.812;2024-01-30T08:04:27;102513.41;;;9.73;80.60
59104;BME280;51449;51.676;5.812;2024-01-30T08:06:49;102536.47;;;9.77;80.43
59104;BME280;51449;51.676;5.812;2024-01-30T08:09:11;102524.91;;;9.80;80.63
59104;BME280;51449;51.676;5.812;2024-01-30T08:11:33;102527.66;;;9.80;80.54
59104;BME280;51449;51.676;5.812;2024-01-30T08:13:55;102531.47;;;9.84;80.50
59104;BME280;51449;51.676;5.812;2024-01-30T08:16:17;102522.13;;;9.85;80.67
59104;BME280;51449;51.676;5.812;2024-01-30T08:18:39;102526.75;;;9.90;80.60
59104;BME280;51449;51.676;5.812;2024-01-30T08:21:01;102526.47;;;9.92;81.19
59104;BME280;51449;51.676;5.812;2024-01-30T08:23:23;102520.34;;;10.00;81.17
59104;BME280;51449;51.676;5.812;2024-01-30T08:25:45;102521.66;;;10.07;81.21
59104;BME280;51449;51.676;5.812;2024-01-30T08:28:07;102522.97;;;10.15;80.94
59104;BME280;51449;51.676;5.812;2024-01-30T08:30:29;102526.78;;;10.19;80.99
59104;BME280;51449;51.676;5.812;2024-01-30T08:32:51;102524.28;;;10.23;80.86
59104;BME280;51449;51.676;5.812;2024-01-30T08:35:14;102524.81;;;10.25;80.87
59104;BME280;51449;51.676;5.812;2024-01-30T08:37:37;102520.09;;;10.31;80.71
59104;BME280;51449;51.676;5.812;2024-01-30T08:39:59;102525.56;;;10.36;80.49
59104;BME280;51449;51.676;5.812;2024-01-30T08:42:21;102519.47;;;10.39;80.76
59104;BME280;51449;51.676;5.812;2024-01-30T08:44:44;102524.41;;;10.42;80.70
59104;BME280;51449;51.676;5.812;2024-01-30T08:47:06;102528.19;;;10.46;80.40
59104;BME280;51449;51.676;5.812;2024-01-30T08:49:28;102528.47;;;10.49;80.27
59104;BME280;51449;51.676;5.812;2024-01-30T08:51:50;102524.56;;;10.50;80.39
59104;BME280;51449;51.676;5.812;2024-01-30T08:54:12;102528.94;;;10.57;80.24
59104;BME280;51449;51.676;5.812;2024-01-30T08:56:34;102527.25;;;10.61;79.70
59104;BME280;51449;51.676;5.812;2024-01-30T08:58:56;102529.69;;;10.62;80.16
59104;BME280;51449;51.676;5.812;2024-01-30T09:01:18;102533.53;;;10.66;79.76
59104;BME280;51449;51.676;5.812;2024-01-30T09:03:40;102532.94;;;10.69;79.78
59104;BME280;51449;51.676;5.812;2024-01-30T09:06:10;102528.47;;;10.74;79.65
59104;BME280;51449;51.676;5.812;2024-01-30T09:08:33;102534.53;;;10.76;79.93
59104;BME280;51449;51.676;5.812;2024-01-30T09:10:55;102527.28;;;10.80;79.67
59104;BME280;51449;51.676;5.812;2024-01-30T09:13:17;102527.22;;;10.85;79.69
59104;BME280;51449;51.676;5.812;2024-01-30T09:15:39;102537.38;;;10.89;79.31
59104;BME280;51449;51.676;5.812;2024-01-30T09:18:03;102537.38;;;10.89;79.54
59104;BME280;51449;51.676;5.812;2024-01-30T09:20:24;102524.94;;;10.92;79.61
59104;BME280;51449;51.676;5.812;2024-01-30T09:22:46;102535.69;;;10.93;79.64
59104;BME280;51449;51.676;5.812;2024-01-30T09:25:08;102540.59;;;10.97;79.38
59104;BME280;51449;51.676;5.812;2024-01-30T09:27:31;102540.84;;;11.00;79.77
59104;BME280;51449;51.676;5.812;2024-01-30T09:29:53;102550.16;;;11.04;79.25
59104;BME280;51449;51.676;5.812;2024-01-30T09:32:15;102547.66;;;11.08;79.39
59104;BME280;51449;51.676;5.812;2024-01-30T09:34:39;102552.34;;;11.07;79.18
59104;BME280;51449;51.676;5.812;2024-01-30T09:37:02;102557.00;;;11.12;79.19
59104;BME280;51449;51.676;5.812;2024-01-30T09:39:24;102567.13;;;11.17;79.02
59104;BME280;51449;51.676;5.812;2024-01-30T09:42:02;102546.91;;;11.21;78.88
59104;BME280;51449;51.676;5.812;2024-01-30T09:44:29;102548.59;;;11.22;79.12
59104;BME280;51449;51.676;5.812;2024-01-30T09:46:52;102549.91;;;11.25;79.13
59104;BME280;51449;51.676;5.812;2024-01-30T09:49:14;102549.84;;;11.30;79.04
59104;BME280;51449;51.676;5.812;2024-01-30T09:51:38;102546.50;;;11.33;78.87
59104;BME280;51449;51.676;5.812;2024-01-30T09:54:02;102558.06;;;11.35;78.69
59104;BME280;51449;51.676;5.812;2024-01-30T09:56:25;102562.97;;;11.38;78.69
59104;BME280;51449;51.676;5.812;2024-01-30T09:58:47;102555.22;;;11.40;78.78
59104;BME280;51449;51.676;5.812;2024-01-30T10:01:10;102560.41;;;11.47;78.67
59104;BME280;51449;51.676;5.812;2024-01-30T10:03:32;102568.34;;;11.48;78.64
59104;BME280;51449;51.676;5.812;2024-01-30T10:05:54;102555.91;;;11.51;78.39
59104;BME280;51449;51.676;5.812;2024-01-30T10:08:17;102557.84;;;11.50;78.59
59104;BME280;51449;51.676;5.812;2024-01-30T10:10:46;102559.44;;;11.56;78.44
59104;BME280;51449;51.676;5.812;2024-01-30T10:13:08;102551.97;;;11.57;78.32
59104;BME280;51449;51.676;5.812;2024-01-30T10:15:32;102560.44;;;11.61;78.50
59104;BME280;51449;51.676;5.812;2024-01-30T10:17:57;102566.22;;;11.64;78.96
59104;BME280;51449;51.676;5.812;2024-01-30T10:20:19;102572.19;;;11.71;78.44
59104;BME280;51449;51.676;5.812;2024-01-30T10:22:41;102562.78;;;11.72;78.65
59104;BME280;51449;51.676;5.812;2024-01-30T10:25:07;102563.31;;;11.74;78.47
59104;BME280;51449;51.676;5.812;2024-01-30T10:27:29;102561.59;;;11.78;78.57
59104;BME280;51449;51.676;5.812;2024-01-30T10:29:52;102559.03;;;11.82;78.37
59104;BME280;51449;51.676;5.812;2024-01-30T10:32:15;102560.09;;;11.86;78.16
59104;BME280;51449;51.676;5.812;2024-01-30T10:34:36;102565.56;;;11.91;78.19
59104;BME280;51449;51.676;5.812;2024-01-30T10:37:09;102579.28;;;11.96;78.24
59104;BME280;51449;51.676;5.812;2024-01-30T10:39:38;102577.56;;;12.01;78.13
59104;BME280;51449;51.676;5.812;2024-01-30T10:42:05;102575.88;;;12.05;78.15
59104;BME280;51449;51.676;5.812;2024-01-30T10:44:30;102577.50;;;12.06;78.01
59104;BME280;51449;51.676;5.812;2024-01-30T10:47:03;102573.59;;;12.07;78.04
59104;BME280;51449;51.676;5.812;2024-01-30T10:49:29;102572.69;;;12.11;77.95
59104;BME280;51449;51.676;5.812;2024-01-30T10:51:53;102569.41;;;12.09;78.07
59104;BME280;51449;51.676;5.812;2024-01-30T10:54:17;102567.69;;;12.13;77.73
59104;BME280;51449;51.676;5.812;2024-01-30T10:56:41;102573.94;;;12.19;77.94
59104;BME280;51449;51.676;5.812;2024-01-30T10:59:04;102574.69;;;12.25;77.86
59104;BME280;51449;51.676;5.812;2024-01-30T11:01:29;102579.25;;;12.34;78.31
59104;BME280;51449;51.676;5.812;2024-01-30T11:03:52;102578.34;;;12.39;77.88
59104;BME280;51449;51.676;5.812;2024-01-30T11:06:15;102568.09;;;12.39;77.77
59104;BME280;51449;51.676;5.812;2024-01-30T11:08:40;102572.38;;;12.46;77.95
59104;BME280;51449;51.676;5.812;2024-01-30T11:11:09;102576.19;;;12.50;77.77
59104;BME280;51449;51.676;5.812;2024-01-30T11:13:31;102554.91;;;12.50;77.68
59104;BME280;51449;51.676;5.812;2024-01-30T11:15:54;102558.19;;;12.52;77.09
59104;BME280;51449;51.676;5.812;2024-01-30T11:18:25;102557.47;;;12.60;76.77
59104;BME280;51449;51.676;5.812;2024-01-30T11:20:50;102572.31;;;12.64;76.95
59104;BME280;51449;51.676;5.812;2024-01-30T11:23:12;102576.34;;;12.72;76.85
59104;BME280;51449;51.676;5.812;2024-01-30T11:25:34;102571.94;;;12.71;76.43
59104;BME280;51449;51.676;5.812;2024-01-30T11:27:56;102579.00;;;12.77;76.05
59104;BME280;51449;51.676;5.812;2024-01-30T11:30:28;102574.50;;;12.81;76.09
59104;BME280;51449;51.676;5.812;2024-01-30T11:33:00;102564.78;;;12.84;75.72
59104;BME280;51449;51.676;5.812;2024-01-30T11:35:25;102571.13;;;12.84;75.71
59104;BME280;51449;51.676;5.812;2024-01-30T11:37:47;102570.00;;;12.85;75.45
59104;BME280;51449;51.676;5.812;2024-01-30T11:40:11;102560.06;;;12.84;75.67
59104;BME280;51449;51.676;5.812;2024-01-30T11:42:34;102561.50;;;12.82;75.37
59104;BME280;51449;51.676;5.812;2024-01-30T11:45:00;102554.53;;;12.84;75.69
59104;BME280;51449;51.676;5.812;2024-01-30T11:47:24;102557.81;;;12.87;75.57
59104;BME280;51449;51.676;5.812;2024-01-30T11:49:46;102563.97;;;12.83;75.18
59104;BME280;51449;51.676;5.812;2024-01-30T11:52:07;102566.91;;;12.87;75.31
59104;BME280;51449;51.676;5.812;2024-01-30T11:54:29;102566.00;;;12.92;75.17
59104;BME280;51449;51.676;5.812;2024-01-30T11:56:52;102564.88;;;12.93;74.82
59104;BME280;51449;51.676;5.812;2024-01-30T11:59:14;102558.13;;;12.99;74.82
59104;BME280;51449;51.676;5.812;2024-01-30T12:01:36;102566.81;;;13.06;74.79
59104;BME280;51449;51.676;5.812;2024-01-30T12:03:59;102565.50;;;13.17;74.35
59104;BME280;51449;51.676;5.812;2024-01-30T12:06:21;102570.91;;;13.22;74.01
59104;BME280;51449;51.676;5.812;2024-01-30T12:08:43;102571.75;;;13.23;72.12
59104;BME280;51449;51.676;5.812;2024-01-30T12:11:22;102573.69;;;13.22;71.53
59104;BME280;51449;51.676;5.812;2024-01-30T12:13:44;102571.53;;;13.19;70.84
59104;BME280;51449;51.676;5.812;2024-01-30T12:16:06;102576.47;;;13.22;71.29
59104;BME280;51449;51.676;5.812;2024-01-30T12:18:28;102576.47;;;13.22;70.87
59104;BME280;51449;51.676;5.812;2024-01-30T12:20:58;102568.66;;;13.24;70.06
59104;BME280;51449;51.676;5.812;2024-01-30T12:23:24;102562.50;;;13.14;68.14
59104;BME280;51449;51.676;5.812;2024-01-30T12:25:47;102579.63;;;13.16;67.93
59104;BME280;51449;51.676;5.812;2024-01-30T12:28:10;102575.31;;;13.23;67.40
59104;BME280;51449;51.676;5.812;2024-01-30T12:30:34;102577.09;;;13.19;66.08
59104;BME280;51449;51.676;5.812;2024-01-30T12:32:56;102590.28;;;13.22;66.02